Time;durP1;ratioP1;P1;durP2;ratioP2;P2;SDS_P1;SDS_P2;PMS_P1;PMS_P2;Temp;Humidity;BMP_temperature;BMP_pressure;BME280_temperature;BME280_humidity;BME280_pressure;Samples;Min_cycle;Max_cycle;Signal;HPM_P1;HPM_P2
2023/11/05 00:01:48;;;;;;;2.58;1.05;;;;;;;8.68;70.85;93756.69;5110457;28;20084;-69
2023/11/05 00:04:13;;;;;;;3.13;1.10;;;;;;;8.64;71.82;93763.13;5110516;28;20455;-69
2023/11/05 00:06:39;;;;;;;1.88;0.90;;;;;;;8.57;72.20;93762.84;5110588;28;20030;-69
2023/11/05 00:09:04;;;;;;;3.60;1.23;;;;;;;8.61;71.62;93765.97;5093524;28;20019;-69
2023/11/05 00:11:30;;;;;;;3.38;1.50;;;;;;;8.25;73.27;93776.94;5127478;27;20024;-70
2023/11/05 00:13:56;;;;;;;4.32;1.98;;;;;;;8.35;73.42;93771.72;5110284;28;20432;-69
2023/11/05 00:16:22;;;;;;;4.95;1.73;;;;;;;8.01;73.92;93767.00;5110357;28;20023;-69
2023/11/05 00:18:48;;;;;;;2.35;0.98;;;;;;;7.89;74.17;93778.44;5110183;28;20433;-69
2023/11/05 00:21:13;;;;;;;2.28;1.30;;;;;;;7.97;74.57;93796.69;5093475;28;20047;-69
2023/11/05 00:23:39;;;;;;;1.90;0.85;;;;;;;7.95;73.98;93790.81;5110327;28;20477;-69
2023/11/05 00:26:04;;;;;;;1.60;0.70;;;;;;;7.89;74.06;93788.78;5111950;28;20042;-69
2023/11/05 00:28:30;;;;;;;1.83;0.88;;;;;;;7.88;74.34;93810.41;5110166;28;20026;-69
2023/11/05 00:30:56;;;;;;;3.13;0.90;;;;;;;7.74;74.88;93795.28;5110495;28;20376;-69
2023/11/05 00:33:22;;;;;;;3.35;1.05;;;;;;;7.54;75.26;93768.59;5110096;28;20027;-69
2023/11/05 00:35:48;;;;;;;2.35;1.10;;;;;;;7.57;75.60;93774.31;5110290;27;20481;-69
2023/11/05 00:38:13;;;;;;;1.17;0.60;;;;;;;7.34;75.87;93762.59;5109936;28;20042;-69
2023/11/05 00:40:39;;;;;;;2.53;1.00;;;;;;;7.57;75.60;93787.25;5093044;28;20038;-69
2023/11/05 00:43:04;;;;;;;3.60;0.70;;;;;;;7.59;75.16;93775.00;5109756;28;20157;-69
2023/11/05 00:45:30;;;;;;;1.95;0.73;;;;;;;7.44;75.42;93775.53;5111586;28;20081;-69
2023/11/05 00:47:55;;;;;;;1.77;0.80;;;;;;;7.68;76.14;93790.66;5111211;28;20534;-69
2023/11/05 00:50:21;;;;;;;1.15;0.60;;;;;;;7.69;75.28;93802.63;5092980;28;20553;-69
2023/11/05 00:52:47;;;;;;;2.13;0.90;;;;;;;7.76;75.08;93790.81;5111138;28;20496;-69
2023/11/05 00:55:14;;;;;;;2.63;0.95;;;;;;;7.75;75.00;93774.50;5093276;28;20050;-69
2023/11/05 00:57:39;;;;;;;4.60;1.73;;;;;;;7.68;75.38;93770.78;5109893;28;20451;-69
2023/11/05 01:00:08;;;;;;;2.63;0.77;;;;;;;7.53;75.05;93760.03;5109863;28;20039;-69
2023/11/05 01:02:34;;;;;;;2.65;0.70;;;;;;;7.40;75.63;93751.72;5109829;28;20128;-69
2023/11/05 01:05:00;;;;;;;2.33;0.80;;;;;;;7.54;75.54;93769.41;5109787;28;20409;-69
2023/11/05 01:07:25;;;;;;;2.83;1.25;;;;;;;7.48;75.79;93762.22;5109640;28;20024;-69
2023/11/05 01:09:51;;;;;;;2.55;0.80;;;;;;;7.59;75.76;93758.69;5092946;28;20048;-69
2023/11/05 01:12:16;;;;;;;1.25;0.70;;;;;;;7.66;75.28;93761.53;5109738;28;20028;-69
2023/11/05 01:14:42;;;;;;;4.80;0.85;;;;;;;7.62;75.11;93768.75;5109702;28;20473;-69
2023/11/05 01:17:12;;;;;;;1.58;0.70;;;;;;;7.43;75.96;93760.97;5109786;28;20031;-69
2023/11/05 01:19:41;;;;;;;1.77;0.80;;;;;;;7.56;76.50;93769.28;5109597;28;20465;-69
2023/11/05 01:22:06;;;;;;;3.05;1.33;;;;;;;7.54;76.75;93758.28;5076382;28;20038;-69
2023/11/05 01:24:32;;;;;;;3.65;1.40;;;;;;;7.68;76.41;93749.31;5109477;28;20032;-69
2023/11/05 01:26:57;;;;;;;3.05;1.25;;;;;;;7.74;76.51;93764.28;5109680;28;20030;-69
2023/11/05 01:29:23;;;;;;;3.85;1.58;;;;;;;7.58;76.41;93773.38;5111008;28;20031;-69
2023/11/05 01:31:48;;;;;;;3.42;1.50;;;;;;;7.79;76.50;93773.25;5092667;28;20444;-69
2023/11/05 01:34:14;;;;;;;3.95;1.60;;;;;;;7.82;76.36;93774.75;5109531;28;20030;-69
2023/11/05 01:36:40;;;;;;;4.07;1.40;;;;;;;7.83;76.43;93779.00;5092548;28;20028;-69
2023/11/05 01:39:06;;;;;;;2.15;1.40;;;;;;;7.77;76.37;93761.41;5126593;27;20019;-69
2023/11/05 01:41:32;;;;;;;2.17;1.10;;;;;;;7.69;76.25;93769.03;5092574;28;20031;-69
2023/11/05 01:43:57;;;;;;;3.05;1.40;;;;;;;7.58;76.94;93759.66;5109326;28;20048;-69
2023/11/05 01:46:23;;;;;;;2.25;1.27;;;;;;;7.60;76.97;93755.97;5092521;28;20039;-69
2023/11/05 01:48:48;;;;;;;1.30;0.80;;;;;;;7.42;77.08;93764.53;5093765;28;20016;-69
2023/11/05 01:51:14;;;;;;;2.20;0.80;;;;;;;7.39;78.22;93747.50;5113392;28;20032;-69
2023/11/05 01:53:42;;;;;;;1.27;0.80;;;;;;;7.42;78.17;93746.44;5096247;28;20539;-69
2023/11/05 01:56:07;;;;;;;3.83;0.82;;;;;;;7.30;77.73;93753.47;5113299;28;20028;-69
2023/11/05 01:58:33;;;;;;;1.55;0.80;;;;;;;7.20;77.73;93773.31;5112969;28;21011;-69
2023/11/05 02:00:58;;;;;;;2.03;0.70;;;;;;;7.12;78.51;93761.03;5113037;28;20039;-69
2023/11/05 02:03:24;;;;;;;2.47;0.80;;;;;;;7.21;76.89;93774.94;5112747;28;20028;-69
2023/11/05 02:05:49;;;;;;;1.63;0.73;;;;;;;7.11;76.59;93760.22;5114505;28;20028;-69
2023/11/05 02:08:14;;;;;;;1.33;0.73;;;;;;;7.08;77.13;93791.50;5112812;28;20417;-69
2023/11/05 02:10:40;;;;;;;2.33;0.82;;;;;;;6.99;77.92;93791.44;5079056;28;20032;-69
2023/11/05 02:13:07;;;;;;;1.77;0.80;;;;;;;6.39;78.30;93778.41;5112674;28;20508;-69
2023/11/05 02:15:32;;;;;;;1.50;0.68;;;;;;;6.40;77.26;93772.28;5112655;28;20047;-69
2023/11/05 02:17:58;;;;;;;1.40;0.85;;;;;;;6.55;77.36;93788.28;5095746;28;20020;-69
2023/11/05 02:20:23;;;;;;;3.15;1.08;;;;;;;6.41;79.17;93792.00;5095634;28;20035;-69
2023/11/05 02:22:49;;;;;;;3.67;1.00;;;;;;;6.43;79.46;93782.34;5095508;28;20072;-69
2023/11/05 02:25:18;;;;;;;1.70;0.80;;;;;;;6.44;79.62;93779.66;5112497;28;20043;-70
2023/11/05 02:27:49;;;;;;;2.08;0.90;;;;;;;6.40;79.77;93780.81;5112390;28;20545;-70
2023/11/05 02:30:22;;;;;;;3.72;0.90;;;;;;;6.48;80.00;93804.22;5112433;28;20036;-70
2023/11/05 02:32:48;;;;;;;2.67;1.20;;;;;;;6.60;79.56;93792.09;5095828;28;20197;-70
2023/11/05 02:35:13;;;;;;;2.42;1.10;;;;;;;6.26;79.60;93799.22;5095409;28;20038;-70
2023/11/05 02:37:39;;;;;;;2.40;1.02;;;;;;;6.15;80.69;93802.66;5095183;28;20558;-70
2023/11/05 02:40:06;;;;;;;1.83;0.85;;;;;;;6.28;80.12;93791.34;5095311;28;20397;-70
2023/11/05 02:42:32;;;;;;;1.73;1.08;;;;;;;6.24;80.89;93778.72;5094904;28;20035;-70
2023/11/05 02:44:57;;;;;;;1.73;0.90;;;;;;;6.33;80.49;93784.06;5095110;28;20107;-69
2023/11/05 02:47:23;;;;;;;2.03;0.98;;;;;;;6.26;80.33;93787.13;5111889;28;20471;-70
2023/11/05 02:49:48;;;;;;;1.90;0.90;;;;;;;6.23;80.34;93777.06;5113452;28;20032;-70
2023/11/05 02:52:14;;;;;;;3.00;1.00;;;;;;;6.39;80.25;93768.06;5112032;28;20554;-70
2023/11/05 02:54:39;;;;;;;5.65;0.90;;;;;;;6.24;79.28;93758.09;5113227;28;20478;-70
2023/11/05 02:57:05;;;;;;;3.85;1.30;;;;;;;6.30;80.24;93753.38;5111855;28;20035;-70
2023/11/05 02:59:30;;;;;;;3.35;1.40;;;;;;;5.84;81.23;93742.44;5094456;28;20034;-70
2023/11/05 03:01:56;;;;;;;4.55;1.42;;;;;;;6.01;81.15;93734.16;5111765;28;20058;-70
2023/11/05 03:04:22;;;;;;;1.70;0.95;;;;;;;5.99;81.41;93723.19;5111790;28;20032;-70
2023/11/05 03:06:51;;;;;;;1.65;0.93;;;;;;;5.88;82.25;93719.78;5112955;28;20020;-70
2023/11/05 03:09:17;;;;;;;3.22;1.48;;;;;;;5.99;82.34;93737.81;5112816;28;20112;-70
2023/11/05 03:11:48;;;;;;;3.13;1.80;;;;;;;6.18;82.40;93745.66;5111628;28;20118;-70
2023/11/05 03:14:14;;;;;;;2.28;1.60;;;;;;;6.26;81.87;93743.28;5112732;28;20020;-70
2023/11/05 03:16:40;;;;;;;3.00;1.90;;;;;;;5.83;83.61;93751.94;5111524;28;20036;-69
2023/11/05 03:19:05;;;;;;;4.35;1.90;;;;;;;5.99;82.93;93761.00;5111270;28;20042;-70
2023/11/05 03:21:31;;;;;;;3.70;1.50;;;;;;;6.17;82.56;93759.53;5094281;28;20039;-70
2023/11/05 03:23:57;;;;;;;4.13;1.95;;;;;;;6.04;81.76;93756.31;5111259;27;20492;-70
2023/11/05 03:26:23;;;;;;;1.35;0.88;;;;;;;6.15;81.74;93774.28;5094370;28;20036;-70
2023/11/05 03:28:49;;;;;;;2.88;1.15;;;;;;;6.24;81.77;93770.13;5112427;28;20417;-70
2023/11/05 03:31:17;;;;;;;6.03;1.52;;;;;;;6.29;81.42;93767.19;5094322;28;20023;-70
2023/11/05 03:33:42;;;;;;;3.33;1.35;;;;;;;6.14;81.93;93782.97;5094562;28;20046;-70
2023/11/05 03:36:09;;;;;;;2.40;1.20;;;;;;;6.20;81.92;93782.47;5094118;28;20031;-70
2023/11/05 03:38:34;;;;;;;3.45;1.35;;;;;;;6.25;81.87;93774.38;5094142;28;20503;-70
2023/11/05 03:41:00;;;;;;;2.95;1.23;;;;;;;6.27;81.34;93790.53;5111211;27;20023;-70
2023/11/05 03:43:26;;;;;;;2.42;1.13;;;;;;;6.32;81.38;93775.47;5110646;28;20059;-70
2023/11/05 03:45:51;;;;;;;3.03;1.35;;;;;;;5.96;81.29;93776.72;5094234;28;20040;-70
2023/11/05 03:48:17;;;;;;;2.30;1.27;;;;;;;5.91;82.00;93771.94;5112066;28;20034;-70
2023/11/05 03:50:43;;;;;;;2.15;1.35;;;;;;;6.12;81.87;93766.81;5112437;28;20402;-70
2023/11/05 03:53:08;;;;;;;2.45;1.08;;;;;;;6.15;81.96;93763.16;5110664;28;20077;-70
2023/11/05 03:55:34;;;;;;;2.13;0.80;;;;;;;6.06;82.42;93751.03;5110922;28;20039;-70
2023/11/05 03:57:59;;;;;;;3.40;0.95;;;;;;;6.23;81.06;93740.94;5110701;28;20497;-70
2023/11/05 04:00:25;;;;;;;2.25;0.80;;;;;;;6.19;81.40;93756.81;5093631;28;20043;-69
2023/11/05 04:02:50;;;;;;;2.10;0.90;;;;;;;6.37;80.84;93760.44;5110515;28;20080;-70
2023/11/05 04:05:15;;;;;;;2.60;1.27;;;;;;;6.36;81.00;93752.84;5110654;28;20477;-70
2023/11/05 04:07:42;;;;;;;2.55;1.20;;;;;;;6.61;80.07;93746.47;5111792;28;20028;-70
2023/11/05 04:10:07;;;;;;;2.83;1.20;;;;;;;6.47;80.44;93765.69;5110491;28;20459;-70
2023/11/05 04:12:34;;;;;;;1.40;0.85;;;;;;;6.47;80.26;93763.09;5109799;28;20068;-70
2023/11/05 04:15:03;;;;;;;2.83;1.27;;;;;;;6.56;80.32;93753.78;5093682;28;20035;-69
2023/11/05 04:17:28;;;;;;;2.38;1.10;;;;;;;6.57;80.51;93769.09;5110366;28;20031;-69
2023/11/05 04:19:54;;;;;;;1.77;1.10;;;;;;;6.55;80.00;93776.19;5111786;28;20088;-70
2023/11/05 04:22:19;;;;;;;2.30;1.10;;;;;;;6.47;80.27;93805.19;5093272;28;20054;-70
2023/11/05 04:24:44;;;;;;;2.65;1.30;;;;;;;6.25;80.49;93790.66;5110241;28;20478;-69
2023/11/05 04:27:10;;;;;;;1.52;0.90;;;;;;;6.50;79.97;93806.69;5111522;28;20016;-69
2023/11/05 04:29:35;;;;;;;4.03;1.00;;;;;;;6.64;79.37;93805.56;5110114;28;20047;-69
2023/11/05 04:32:01;;;;;;;3.00;1.42;;;;;;;6.54;78.87;93818.38;5093067;28;20019;-69
2023/11/05 04:34:27;;;;;;;4.05;1.20;;;;;;;6.39;79.38;93820.47;5110068;28;20039;-69
2023/11/05 04:36:53;;;;;;;2.70;1.15;;;;;;;6.50;78.88;93809.28;5110116;28;20099;-69
2023/11/05 04:39:18;;;;;;;2.13;1.20;;;;;;;6.38;79.27;93807.69;5093077;28;20055;-69
2023/11/05 04:41:44;;;;;;;3.15;1.23;;;;;;;6.15;78.97;93807.00;5092993;28;20076;-69
2023/11/05 04:44:09;;;;;;;2.13;1.13;;;;;;;6.33;79.45;93815.84;5093136;28;20417;-69
2023/11/05 04:46:39;;;;;;;4.57;1.10;;;;;;;5.61;80.72;93788.09;5092983;28;20024;-69
2023/11/05 04:49:04;;;;;;;2.70;1.42;;;;;;;5.66;80.54;93808.34;5109947;28;20505;-69
2023/11/05 04:51:30;;;;;;;3.53;2.80;;;;;;;5.88;81.12;93799.69;5111499;28;20024;-69
2023/11/05 04:53:55;;;;;;;3.17;1.27;;;;;;;5.88;80.04;93803.13;5109795;28;20027;-69
2023/11/05 04:56:21;;;;;;;2.67;1.10;;;;;;;5.67;81.02;93797.09;5111144;28;20086;-69
2023/11/05 04:58:46;;;;;;;4.85;1.23;;;;;;;5.85;81.01;93800.78;5109853;28;20026;-69
2023/11/05 05:01:12;;;;;;;1.73;0.90;;;;;;;5.88;80.63;93795.38;5092708;28;20434;-69
2023/11/05 05:03:37;;;;;;;3.65;1.20;;;;;;;5.74;80.91;93811.13;5111016;28;20050;-69
2023/11/05 05:06:04;;;;;;;4.50;1.10;;;;;;;5.69;81.56;93800.38;5111522;28;20024;-69
2023/11/05 05:08:29;;;;;;;3.08;1.10;;;;;;;5.31;81.75;93791.34;5109644;28;20497;-69
2023/11/05 05:10:55;;;;;;;2.20;1.25;;;;;;;5.49;81.71;93807.09;5127012;28;20032;-69
2023/11/05 05:13:20;;;;;;;3.35;2.25;;;;;;;5.55;81.57;93798.91;5110960;28;20116;-70
2023/11/05 05:15:45;;;;;;;3.92;1.60;;;;;;;5.59;81.90;93800.28;5109678;28;20035;-70
2023/11/05 05:18:11;;;;;;;5.63;1.63;;;;;;;5.32;82.19;93782.66;5109706;28;20463;-69
2023/11/05 05:20:36;;;;;;;2.47;1.42;;;;;;;5.48;82.75;93800.31;5109721;28;20406;-71
2023/11/05 05:23:02;;;;;;;2.83;1.50;;;;;;;5.65;82.26;93809.28;5126847;27;20051;-69
2023/11/05 05:25:28;;;;;;;2.67;1.52;;;;;;;5.70;82.15;93827.78;5113874;28;20430;-69
2023/11/05 05:27:54;;;;;;;3.50;1.67;;;;;;;5.87;81.17;93816.94;5113607;28;20046;-69
2023/11/05 05:30:19;;;;;;;2.25;1.40;;;;;;;5.69;81.59;93792.66;5130707;27;20044;-69
2023/11/05 05:32:45;;;;;;;1.98;1.30;;;;;;;5.81;81.71;93820.00;5114986;28;20038;-69
2023/11/05 05:35:10;;;;;;;2.55;1.30;;;;;;;5.98;81.53;93832.38;5096568;28;20030;-69
2023/11/05 05:37:36;;;;;;;3.55;1.00;;;;;;;6.02;81.03;93822.66;5096401;28;20039;-68
2023/11/05 05:40:01;;;;;;;4.18;1.20;;;;;;;6.00;81.77;93824.53;5113410;28;20054;-69
2023/11/05 05:42:29;;;;;;;2.45;1.25;;;;;;;5.99;81.44;93833.19;5114415;28;20043;-68
2023/11/05 05:44:55;;;;;;;4.03;1.13;;;;;;;5.84;81.94;93830.06;5114548;28;20123;-68
2023/11/05 05:47:21;;;;;;;2.83;1.20;;;;;;;6.11;82.01;93821.91;5096325;28;20031;-68
2023/11/05 05:49:47;;;;;;;3.20;1.20;;;;;;;5.99;81.61;93826.31;5113083;28;20027;-69
2023/11/05 05:52:13;;;;;;;3.25;1.20;;;;;;;5.80;81.94;93811.47;5113180;28;20515;-69
2023/11/05 05:54:38;;;;;;;3.22;1.00;;;;;;;6.06;81.66;93826.63;5096021;28;20413;-68
2023/11/05 05:57:04;;;;;;;2.20;1.00;;;;;;;6.03;81.41;93826.88;5096111;28;20031;-69
2023/11/05 05:59:31;;;;;;;6.18;1.77;;;;;;;5.92;81.48;93830.28;5112967;28;20038;-69
2023/11/05 06:01:56;;;;;;;2.58;1.15;;;;;;;5.73;82.12;93823.19;5096142;28;20552;-69
2023/11/05 06:04:21;;;;;;;3.13;1.13;;;;;;;5.75;81.99;93834.19;5112797;28;20065;-68
2023/11/05 06:06:47;;;;;;;1.52;0.90;;;;;;;5.77;82.02;93824.59;5112910;28;20073;-68
2023/11/05 06:09:16;;;;;;;2.05;1.15;;;;;;;5.71;81.93;93829.41;5112866;28;20028;-68
2023/11/05 06:11:41;;;;;;;1.92;1.20;;;;;;;5.70;82.42;93822.63;5112849;28;20030;-69
2023/11/05 06:14:07;;;;;;;2.05;1.20;;;;;;;5.93;82.67;93836.25;5095648;28;20019;-68
2023/11/05 06:16:32;;;;;;;2.38;1.30;;;;;;;5.83;81.76;93828.44;5112724;28;20031;-69
2023/11/05 06:18:57;;;;;;;2.20;1.20;;;;;;;5.87;80.89;93798.88;5112452;28;20023;-69
2023/11/05 06:21:23;;;;;;;1.70;0.98;;;;;;;5.94;80.42;93820.69;5113754;28;20032;-69
2023/11/05 06:23:48;;;;;;;3.15;1.17;;;;;;;5.97;80.67;93819.63;5095566;28;20028;-68
2023/11/05 06:26:14;;;;;;;3.40;1.38;;;;;;;5.78;81.83;93815.09;5112734;28;20028;-69
2023/11/05 06:28:39;;;;;;;2.13;1.10;;;;;;;6.18;80.57;93823.03;5112464;28;20028;-68
2023/11/05 06:31:05;;;;;;;2.05;1.38;;;;;;;5.98;79.97;93798.06;5112584;28;20043;-69
2023/11/05 06:33:33;;;;;;;1.60;1.08;;;;;;;5.86;80.38;93792.09;5129275;27;20447;-70
2023/11/05 06:36:01;;;;;;;4.07;1.25;;;;;;;5.67;80.69;93792.75;5111938;28;20039;-69
2023/11/05 06:38:27;;;;;;;1.83;1.08;;;;;;;5.75;81.14;93803.28;5095428;28;20032;-69
2023/11/05 06:40:52;;;;;;;2.08;1.10;;;;;;;5.94;81.68;93817.31;5112094;28;20122;-70
2023/11/05 06:43:18;;;;;;;1.95;1.10;;;;;;;5.93;81.61;93815.63;5129132;27;20062;-70
2023/11/05 06:45:43;;;;;;;3.13;1.20;;;;;;;5.68;82.46;93816.75;5113707;28;20112;-71
2023/11/05 06:48:09;;;;;;;4.40;1.17;;;;;;;5.91;82.51;93836.38;5112378;28;20397;-71
2023/11/05 06:50:35;;;;;;;1.75;1.20;;;;;;;5.50;83.86;93822.44;5113631;28;20023;-69
2023/11/05 06:53:00;;;;;;;2.40;1.30;;;;;;;5.74;83.13;93840.31;5113139;28;20402;-71
2023/11/05 06:55:26;;;;;;;2.00;1.23;;;;;;;6.03;83.20;93811.41;5095112;28;20036;-69
2023/11/05 06:57:51;;;;;;;3.03;1.10;;;;;;;6.21;81.01;93830.56;5113119;27;20114;-69
2023/11/05 07:00:19;;;;;;;2.88;1.30;;;;;;;6.13;81.21;93824.34;5113408;28;20508;-69
2023/11/05 07:02:44;;;;;;;2.70;1.45;;;;;;;6.28;81.65;93832.63;5112945;28;20106;-69
2023/11/05 07:05:10;;;;;;;4.72;1.33;;;;;;;6.51;82.31;93828.16;5111728;28;20101;-69
2023/11/05 07:07:35;;;;;;;5.10;1.40;;;;;;;6.69;80.11;93817.13;5112852;28;20030;-69
2023/11/05 07:10:04;;;;;;;2.53;1.20;;;;;;;6.81;80.45;93835.94;5111868;28;20047;-70
2023/11/05 07:12:30;;;;;;;4.53;2.78;;;;;;;7.08;80.59;93819.09;5112286;27;20054;-70
2023/11/05 07:14:55;;;;;;;3.53;1.90;;;;;;;7.66;77.72;93810.66;5111519;28;20023;-69
2023/11/05 07:17:21;;;;;;;3.42;1.67;;;;;;;8.76;72.88;93803.41;5111527;28;20206;-69
2023/11/05 07:19:46;;;;;;;3.80;1.83;;;;;;;10.19;67.36;93811.50;5111312;28;20043;-69
2023/11/05 07:22:12;;;;;;;52.88;17.98;;;;;;;11.75;63.69;93825.47;5111306;28;20036;-69
2023/11/05 07:24:38;;;;;;;21.08;8.23;;;;;;;12.82;58.22;93826.44;5077339;28;20081;-70
2023/11/05 07:27:04;;;;;;;29.60;10.80;;;;;;;12.94;56.76;93773.78;5112627;28;20056;-70
2023/11/05 07:29:30;;;;;;;5.03;2.38;;;;;;;12.95;55.85;93808.47;5128286;27;20118;-70
2023/11/05 07:31:56;;;;;;;4.40;1.95;;;;;;;14.01;53.61;93787.25;5111225;28;20045;-70
2023/11/05 07:34:21;;;;;;;11.15;4.28;;;;;;;15.33;52.41;93789.56;5094145;28;20032;-70
2023/11/05 07:36:46;;;;;;;106.97;26.13;;;;;;;16.16;49.54;93784.94;5111170;28;20024;-70
2023/11/05 07:39:12;;;;;;;8.45;2.92;;;;;;;17.07;45.43;93764.16;5110985;28;20088;-70
2023/11/05 07:41:38;;;;;;;13.27;4.32;;;;;;;17.05;44.43;93755.66;5094072;28;20406;-70
2023/11/05 07:44:03;;;;;;;3.13;1.80;;;;;;;15.71;47.49;93724.84;5110894;28;20043;-70
2023/11/05 07:46:29;;;;;;;9.30;2.75;;;;;;;15.56;48.82;93748.41;5110116;28;20031;-70
2023/11/05 07:48:54;;;;;;;5.70;2.25;;;;;;;15.30;50.82;93742.84;5110913;28;20031;-70
2023/11/05 07:51:23;;;;;;;6.47;2.30;;;;;;;15.54;51.02;93747.75;5111092;28;20051;-70
2023/11/05 07:53:49;;;;;;;6.63;2.17;;;;;;;14.73;52.44;93752.09;5110813;28;20027;-70
2023/11/05 07:56:16;;;;;;;5.00;1.88;;;;;;;14.68;54.25;93746.56;5110901;28;20078;-70
2023/11/05 07:58:41;;;;;;;4.18;1.60;;;;;;;13.93;52.39;93744.69;5128020;27;20028;-70
2023/11/05 08:01:06;;;;;;;4.20;1.55;;;;;;;13.49;52.67;93733.06;5110819;28;20041;-70
2023/11/05 08:03:32;;;;;;;6.78;2.50;;;;;;;13.26;54.19;93738.22;5093633;28;20023;-70
2023/11/05 08:05:57;;;;;;;4.82;2.00;;;;;;;13.32;54.93;93757.59;5093702;28;20023;-70
2023/11/05 08:08:23;;;;;;;5.05;2.22;;;;;;;12.77;56.46;93742.72;5093549;28;20032;-70
2023/11/05 08:10:48;;;;;;;6.40;2.80;;;;;;;12.84;56.07;93739.31;5093789;28;20034;-70
2023/11/05 08:13:14;;;;;;;5.95;2.15;;;;;;;13.17;57.14;93745.19;5093517;28;20035;-70
2023/11/05 08:15:40;;;;;;;4.43;1.67;;;;;;;13.05;58.49;93738.72;5110607;28;20421;-70
2023/11/05 08:18:07;;;;;;;3.72;2.13;;;;;;;12.53;55.81;93715.72;5110352;28;20028;-70
2023/11/05 08:20:32;;;;;;;4.20;2.35;;;;;;;12.64;55.71;93702.34;5093594;28;20160;-70
2023/11/05 08:22:58;;;;;;;3.97;1.70;;;;;;;12.60;56.03;93711.50;5127314;27;20036;-70
2023/11/05 08:25:24;;;;;;;2.70;1.50;;;;;;;12.56;55.91;93704.97;5093483;28;20027;-70
2023/11/05 08:27:50;;;;;;;3.70;1.30;;;;;;;12.37;56.31;93690.53;5110278;28;20180;-70
2023/11/05 08:30:16;;;;;;;3.75;1.90;;;;;;;12.44;56.36;93690.69;5093505;28;20040;-70
2023/11/05 08:32:41;;;;;;;3.75;1.73;;;;;;;12.48;56.99;93694.56;5110164;28;20047;-70
2023/11/05 08:35:08;;;;;;;3.80;1.42;;;;;;;12.49;56.97;93668.38;5111640;28;20028;-70
2023/11/05 08:37:34;;;;;;;3.20;1.67;;;;;;;12.41;55.83;93664.97;5110102;28;20069;-70
2023/11/05 08:40:00;;;;;;;2.67;1.35;;;;;;;12.37;56.41;93641.06;5110240;28;20099;-70
2023/11/05 08:42:26;;;;;;;4.55;1.50;;;;;;;12.42;56.23;93662.19;5127087;27;20135;-70
2023/11/05 08:44:51;;;;;;;2.50;1.35;;;;;;;12.56;55.71;93650.25;5093067;28;20036;-70
2023/11/05 08:47:17;;;;;;;3.30;1.60;;;;;;;12.66;55.60;93647.50;5110020;28;20028;-70
2023/11/05 08:49:42;;;;;;;5.00;2.33;;;;;;;12.34;57.04;93609.31;5093075;28;20145;-70
2023/11/05 08:52:08;;;;;;;4.53;2.13;;;;;;;12.74;57.16;93645.66;5093057;28;20076;-70
2023/11/05 08:54:34;;;;;;;6.00;2.03;;;;;;;12.65;55.42;93638.06;5092790;28;20149;-70
2023/11/05 08:56:59;;;;;;;3.65;1.55;;;;;;;12.69;55.80;93640.13;5110143;28;20034;-70
2023/11/05 08:59:26;;;;;;;5.53;1.73;;;;;;;12.83;55.34;93628.19;5115363;28;20031;-70
2023/11/05 09:01:52;;;;;;;21.27;6.82;;;;;;;12.73;56.50;93618.00;5114151;28;20062;-69
2023/11/05 09:04:18;;;;;;;9.75;2.53;;;;;;;13.10;57.37;93639.16;5131190;27;20023;-69
2023/11/05 09:06:44;;;;;;;12.20;4.40;;;;;;;13.21;56.40;93636.19;5097018;28;20482;-69
2023/11/05 09:09:10;;;;;;;5.43;1.90;;;;;;;13.24;56.98;93604.53;5097110;28;20152;-69
2023/11/05 09:11:37;;;;;;;12.57;3.25;;;;;;;13.43;56.13;93641.59;5097102;28;20493;-70
2023/11/05 09:14:03;;;;;;;5.55;2.33;;;;;;;13.54;55.86;93641.19;5113830;28;20110;-70
2023/11/05 09:16:28;;;;;;;8.13;2.03;;;;;;;13.85;55.70;93617.69;5113869;28;20028;-71
2023/11/05 09:18:55;;;;;;;4.82;1.58;;;;;;;13.97;54.98;93631.13;5113685;28;20104;-70
2023/11/05 09:21:20;;;;;;;3.90;1.48;;;;;;;14.11;55.61;93626.91;5130704;27;20035;-71
2023/11/05 09:23:46;;;;;;;3.10;1.30;;;;;;;14.21;56.48;93628.28;5096634;28;20031;-71
2023/11/05 09:26:11;;;;;;;2.47;1.52;;;;;;;14.33;54.25;93641.72;5113850;28;20030;-71
2023/11/05 09:28:37;;;;;;;2.78;1.35;;;;;;;14.42;52.56;93647.66;5113614;28;20027;-71
2023/11/05 09:31:02;;;;;;;3.47;1.70;;;;;;;14.24;52.89;93617.47;5113513;28;20039;-71
2023/11/05 09:33:28;;;;;;;2.85;1.35;;;;;;;14.21;50.54;93623.06;5096551;28;20443;-71
2023/11/05 09:35:53;;;;;;;8.70;3.80;;;;;;;14.15;52.14;93618.56;5115180;28;20034;-71
2023/11/05 09:38:19;;;;;;;4.75;1.48;;;;;;;14.55;49.98;93611.31;5113420;28;20028;-71
2023/11/05 09:40:46;;;;;;;3.33;1.55;;;;;;;14.45;51.64;93605.50;5130522;27;20409;-71
2023/11/05 09:43:11;;;;;;;7.53;3.92;;;;;;;14.00;53.14;93588.97;5113259;27;20055;-71
2023/11/05 09:45:37;;;;;;;5.78;2.45;;;;;;;13.96;52.77;93612.03;5113360;28;20030;-71
2023/11/05 09:48:07;;;;;;;4.25;1.63;;;;;;;14.36;52.75;93596.16;5130350;27;20039;-71
2023/11/05 09:50:34;;;;;;;11.68;4.40;;;;;;;14.15;52.88;93589.84;5096577;28;20027;-71
2023/11/05 09:53:07;;;;;;;5.38;2.22;;;;;;;14.26;51.52;93599.84;5113150;28;20104;-71
2023/11/05 09:55:33;;;;;;;4.13;1.65;;;;;;;14.61;50.97;93586.25;5130400;27;20089;-71
2023/11/05 09:58:00;;;;;;;3.70;1.30;;;;;;;14.53;51.94;93563.66;5113083;28;20035;-71
2023/11/05 10:00:30;;;;;;;3.42;1.40;;;;;;;14.65;50.64;93556.16;5113173;28;20042;-71
2023/11/05 10:03:00;;;;;;;9.35;7.75;;;;;;;14.48;52.11;93555.50;5114217;28;20047;-71
2023/11/05 10:05:26;;;;;;;4.65;3.72;;;;;;;14.62;51.46;93523.34;5095844;28;20027;-71
2023/11/05 10:07:53;;;;;;;3.85;1.23;;;;;;;14.79;50.72;93530.97;5114058;28;20463;-71
2023/11/05 10:10:18;;;;;;;5.45;1.25;;;;;;;14.74;51.12;93527.13;5095067;28;20038;-72
2023/11/05 10:12:44;;;;;;;2.67;1.00;;;;;;;14.70;52.24;93519.81;5112769;27;20027;-72
2023/11/05 10:15:09;;;;;;;3.92;1.20;;;;;;;14.82;52.24;93525.38;5112836;28;20028;-72
2023/11/05 10:17:35;;;;;;;3.03;1.45;;;;;;;14.73;52.24;93520.25;5095686;28;20034;-72
2023/11/05 10:20:01;;;;;;;2.80;1.48;;;;;;;14.81;52.09;93492.41;5129728;27;20292;-72
2023/11/05 10:22:26;;;;;;;2.88;1.55;;;;;;;14.68;52.41;93478.22;5112485;28;20556;-70
2023/11/05 10:24:51;;;;;;;3.45;1.70;;;;;;;14.78;51.93;93445.72;5095727;28;20040;-71
2023/11/05 10:27:29;;;;;;;3.20;1.27;;;;;;;14.82;52.71;93462.66;5112495;28;20023;-71
2023/11/05 10:29:54;;;;;;;5.28;1.10;;;;;;;15.03;52.27;93457.44;5112618;28;20102;-72
2023/11/05 10:32:21;;;;;;;2.42;1.00;;;;;;;15.22;51.63;93436.88;5095383;28;20034;-72
2023/11/05 10:34:47;;;;;;;3.13;1.00;;;;;;;15.34;51.41;93435.38;5095535;28;20039;-72
2023/11/05 10:37:13;;;;;;;3.28;1.15;;;;;;;15.52;51.71;93419.22;5095489;28;20028;-72
2023/11/05 10:39:38;;;;;;;2.97;1.00;;;;;;;15.65;51.29;93417.47;5112177;28;20394;-72
2023/11/05 10:42:04;;;;;;;3.25;1.10;;;;;;;15.68;51.43;93418.94;5112093;28;20034;-72
2023/11/05 10:44:29;;;;;;;2.33;1.30;;;;;;;15.88;51.18;93420.84;5112170;28;20052;-72
2023/11/05 10:46:56;;;;;;;2.72;1.10;;;;;;;16.00;50.75;93456.78;5112240;28;20034;-72
2023/11/05 10:49:21;;;;;;;2.10;1.00;;;;;;;16.00;50.51;93483.00;5095104;28;20035;-72
2023/11/05 10:51:48;;;;;;;3.33;1.02;;;;;;;16.24;49.47;93470.41;5113240;28;20080;-72
2023/11/05 10:54:13;;;;;;;4.50;1.08;;;;;;;16.00;54.68;93456.78;5112070;27;20417;-72
2023/11/05 10:56:42;;;;;;;3.47;1.67;;;;;;;16.08;53.11;93485.44;5111885;28;20114;-70
2023/11/05 10:59:09;;;;;;;2.53;1.10;;;;;;;15.96;51.37;93475.69;5095427;28;20032;-71
2023/11/05 11:01:36;;;;;;;3.60;1.20;;;;;;;15.95;51.71;93487.97;5112010;27;20421;-72
2023/11/05 11:04:04;;;;;;;2.70;0.90;;;;;;;15.98;49.07;93452.75;5111987;28;20023;-72
2023/11/05 11:06:30;;;;;;;3.30;0.90;;;;;;;15.72;49.89;93435.06;5113311;27;20043;-70
2023/11/05 11:08:57;;;;;;;1.13;0.63;;;;;;;15.82;47.73;93417.19;5094626;28;20027;-72
2023/11/05 11:11:22;;;;;;;2.25;0.80;;;;;;;15.83;48.89;93424.88;5094760;28;20153;-72
2023/11/05 11:13:56;;;;;;;2.10;0.80;;;;;;;15.95;49.24;93447.91;5111533;28;20071;-72
2023/11/05 11:16:28;;;;;;;1.83;0.70;;;;;;;15.92;48.72;93438.63;5112775;28;20073;-72
2023/11/05 11:18:54;;;;;;;2.70;0.70;;;;;;;16.06;47.63;93456.03;5112723;28;20030;-72
2023/11/05 11:21:20;;;;;;;3.00;0.77;;;;;;;16.16;46.69;93460.91;5111508;28;20070;-72
2023/11/05 11:23:45;;;;;;;2.35;0.70;;;;;;;16.15;45.98;93437.53;5112619;28;20035;-70
2023/11/05 11:26:19;;;;;;;2.72;0.80;;;;;;;16.01;49.98;93468.06;5111263;28;20024;-72
2023/11/05 11:28:45;;;;;;;1.48;0.43;;;;;;;15.92;44.17;93445.66;5112422;28;20028;-71
2023/11/05 11:31:11;;;;;;;1.70;0.70;;;;;;;16.08;45.82;93454.03;5112933;28;20094;-72
2023/11/05 11:33:36;;;;;;;2.00;0.88;;;;;;;16.06;48.30;93470.94;5112644;28;20394;-72